Time;durP1;ratioP1;P1;durP2;ratioP2;P2;SDS_P1;SDS_P2;PMS_P1;PMS_P2;Temp;Humidity;BMP_temperature;BMP_pressure;BME280_temperature;BME280_humidity;BME280_pressure;Samples;Min_cycle;Max_cycle;Signal;HPM_P1;HPM_P2
2021/12/25 05:57:21;;;;;;;1.55;1.45;;;;;;;;;;5505446;23;20240;-84
2021/12/25 05:59:49;;;;;;;1.40;1.30;;;;;;;;;;4963078;28;20201;-84
2021/12/25 06:02:16;;;;;;;1.45;1.35;;;;;;;;;;4947864;29;20218;-85
2021/12/25 06:04:44;;;;;;;1.00;1.00;;;;;;;;;;4944292;29;20229;-84
2021/12/25 06:07:12;;;;;;;1.20;1.20;;;;;;;;;;4960172;29;20208;-84
2021/12/25 06:09:40;;;;;;;1.17;1.17;;;;;;;;;;4963663;29;20212;-84
2021/12/25 06:12:11;;;;;;;1.15;1.15;;;;;;;;;;4966434;29;20205;-84
2021/12/25 06:14:41;;;;;;;1.15;1.10;;;;;;;;;;4962590;29;20691;-87
2021/12/25 06:17:09;;;;;;;0.70;0.70;;;;;;;;;;4959006;29;20205;-87
2021/12/25 06:19:36;;;;;;;2.78;1.80;;;;;;;;;;4961236;29;20227;-84
2021/12/25 06:22:04;;;;;;;1.00;1.00;;;;;;;;;;4960276;29;20193;-84
2021/12/25 06:24:40;;;;;;;1.00;1.00;;;;;;;;;;4958332;29;20228;-83
2021/12/25 06:27:07;;;;;;;1.00;1.00;;;;;;;;;;4959446;29;20239;-85
2021/12/25 06:29:35;;;;;;;1.00;1.00;;;;;;;;;;4961574;29;20205;-86
2021/12/25 06:32:04;;;;;;;0.90;0.90;;;;;;;;;;4961368;29;20205;-83
2021/12/25 06:34:32;;;;;;;0.95;0.95;;;;;;;;;;4963399;28;20232;-82
2021/12/25 06:36:59;;;;;;;1.13;0.95;;;;;;;;;;4963376;29;20193;-84
2021/12/25 06:39:33;;;;;;;0.90;0.90;;;;;;;;;;4962058;29;20744;-82
2021/12/25 06:42:01;;;;;;;1.20;1.20;;;;;;;;;;4959503;29;20186;-82
2021/12/25 06:44:29;;;;;;;1.60;1.50;;;;;;;;;;4956962;29;20244;-83
2021/12/25 06:47:04;;;;;;;1.60;1.50;;;;;;;;;;4958222;29;20216;-86
2021/12/25 06:49:35;;;;;;;0.80;0.80;;;;;;;;;;4937838;29;20186;-84
2021/12/25 06:52:04;;;;;;;1.30;1.30;;;;;;;;;;4937093;29;20185;-83
2021/12/25 06:54:33;;;;;;;1.20;1.20;;;;;;;;;;4937841;29;20249;-84
2021/12/25 06:57:01;;;;;;;1.30;1.20;;;;;;;;;;4938552;29;20230;-85
2021/12/25 06:59:31;;;;;;;0.80;0.80;;;;;;;;;;4939391;29;20213;-84
2021/12/25 07:01:59;;;;;;;1.17;1.10;;;;;;;;;;4938774;29;20657;-85
2021/12/25 07:04:28;;;;;;;0.82;0.82;;;;;;;;;;4938557;29;20230;-84
2021/12/25 07:06:56;;;;;;;0.98;0.98;;;;;;;;;;4937451;29;20572;-84
2021/12/25 07:09:24;;;;;;;0.90;0.90;;;;;;;;;;4938240;29;20560;-85
2021/12/25 07:11:51;;;;;;;1.05;1.05;;;;;;;;;;4937490;29;20217;-84
2021/12/25 07:14:26;;;;;;;1.10;1.02;;;;;;;;;;4937658;29;20230;-84
2021/12/25 07:16:53;;;;;;;1.10;1.10;;;;;;;;;;4937661;29;20562;-85
2021/12/25 07:19:20;;;;;;;1.10;1.10;;;;;;;;;;4936737;29;20213;-85
2021/12/25 07:21:49;;;;;;;1.15;1.10;;;;;;;;;;4937021;29;20196;-83
2021/12/25 07:24:17;;;;;;;2.15;1.38;;;;;;;;;;4936926;29;20236;-84
2021/12/25 07:26:45;;;;;;;1.13;1.02;;;;;;;;;;4936476;29;20236;-85
2021/12/25 07:29:12;;;;;;;1.15;1.08;;;;;;;;;;4936820;29;20202;-84
2021/12/25 07:31:41;;;;;;;1.20;1.20;;;;;;;;;;4937375;29;20201;-85
2021/12/25 07:34:09;;;;;;;0.93;0.93;;;;;;;;;;4952149;29;20228;-84
2021/12/25 07:36:38;;;;;;;1.13;0.90;;;;;;;;;;4956294;29;20661;-84
2021/12/25 07:39:07;;;;;;;1.05;1.05;;;;;;;;;;4957000;29;20209;-80
2021/12/25 07:41:35;;;;;;;1.13;1.13;;;;;;;;;;4958435;28;20200;-82
2021/12/25 07:44:02;;;;;;;1.17;1.00;;;;;;;;;;4957398;29;20225;-82
2021/12/25 07:46:30;;;;;;;1.00;1.00;;;;;;;;;;4957683;29;20193;-82
2021/12/25 07:48:58;;;;;;;0.85;0.85;;;;;;;;;;4957725;29;20208;-82
2021/12/25 07:51:25;;;;;;;1.20;1.10;;;;;;;;;;4951984;28;20289;-82
2021/12/25 07:53:53;;;;;;;1.10;1.10;;;;;;;;;;4944923;29;20313;-82
2021/12/25 07:56:25;;;;;;;0.80;0.80;;;;;;;;;;4957011;28;20694;-81
2021/12/25 07:58:52;;;;;;;1.25;0.90;;;;;;;;;;4954652;29;20325;-81
2021/12/25 08:01:20;;;;;;;0.90;0.90;;;;;;;;;;4940699;29;20212;-82
2021/12/25 08:03:47;;;;;;;1.10;1.00;;;;;;;;;;4936659;29;20260;-81
2021/12/25 08:06:15;;;;;;;1.02;1.00;;;;;;;;;;4935949;29;20207;-81
2021/12/25 08:08:42;;;;;;;1.10;1.00;;;;;;;;;;4936351;29;20209;-80
2021/12/25 08:11:10;;;;;;;0.80;0.80;;;;;;;;;;4936156;29;20241;-81
2021/12/25 08:13:40;;;;;;;1.15;1.05;;;;;;;;;;4936457;29;20236;-82
2021/12/25 08:16:07;;;;;;;0.90;0.90;;;;;;;;;;4936800;29;20213;-80
2021/12/25 08:18:35;;;;;;;4.45;1.42;;;;;;;;;;4937492;29;20265;-81
2021/12/25 08:21:04;;;;;;;1.90;1.75;;;;;;;;;;4939856;29;20209;-79
2021/12/25 08:23:32;;;;;;;1.48;1.00;;;;;;;;;;4939749;29;20225;-81
2021/12/25 08:26:00;;;;;;;1.38;1.27;;;;;;;;;;4939936;29;20222;-81
2021/12/25 08:28:28;;;;;;;1.77;1.00;;;;;;;;;;4941065;29;20204;-81
2021/12/25 08:30:57;;;;;;;0.88;0.88;;;;;;;;;;4941393;29;20196;-82
2021/12/25 08:33:24;;;;;;;1.45;1.45;;;;;;;;;;4941289;29;20228;-83
2021/12/25 08:35:52;;;;;;;0.90;0.90;;;;;;;;;;4943926;29;20190;-83
2021/12/25 08:38:19;;;;;;;2.25;1.20;;;;;;;;;;4952902;29;20205;-82
2021/12/25 08:40:47;;;;;;;1.27;1.17;;;;;;;;;;4963166;29;20196;-82
2021/12/25 08:43:16;;;;;;;3.83;1.10;;;;;;;;;;4960117;29;20311;-83
2021/12/25 08:45:47;;;;;;;3.40;1.00;;;;;;;;;;4960071;29;20755;-82
2021/12/25 08:48:20;;;;;;;1.00;1.00;;;;;;;;;;4960300;29;20197;-81
2021/12/25 08:50:52;;;;;;;1.17;1.17;;;;;;;;;;4959475;28;20209;-82
2021/12/25 08:53:21;;;;;;;1.15;1.08;;;;;;;;;;4959520;29;20229;-82
2021/12/25 08:55:50;;;;;;;1.05;1.05;;;;;;;;;;4959880;29;20197;-82
2021/12/25 08:58:18;;;;;;;1.10;1.00;;;;;;;;;;4958900;29;20243;-82
2021/12/25 09:00:50;;;;;;;1.40;1.27;;;;;;;;;;4959096;29;20185;-81
2021/12/25 09:03:19;;;;;;;1.20;1.00;;;;;;;;;;4958369;29;20225;-84
2021/12/25 09:05:46;;;;;;;1.35;1.25;;;;;;;;;;4959129;29;20296;-82
2021/12/25 09:08:19;;;;;;;1.02;0.90;;;;;;;;;;4962241;29;20181;-84
2021/12/25 09:10:47;;;;;;;1.38;1.30;;;;;;;;;;4958735;28;20209;-83
2021/12/25 09:13:14;;;;;;;1.20;1.13;;;;;;;;;;4958360;28;20264;-83
2021/12/25 09:15:42;;;;;;;1.20;1.20;;;;;;;;;;4958505;29;20211;-81
2021/12/25 09:18:09;;;;;;;1.80;1.67;;;;;;;;;;4958496;28;20221;-84
2021/12/25 09:20:38;;;;;;;1.05;1.02;;;;;;;;;;4958111;29;20201;-85
2021/12/25 09:23:06;;;;;;;1.17;1.17;;;;;;;;;;4958090;29;20227;-84
2021/12/25 09:25:34;;;;;;;1.17;1.17;;;;;;;;;;4959014;28;20233;-85
2021/12/25 09:28:01;;;;;;;1.20;1.20;;;;;;;;;;4958918;29;20637;-83
2021/12/25 09:30:30;;;;;;;1.50;1.40;;;;;;;;;;4958363;28;20679;-84
2021/12/25 09:32:59;;;;;;;1.15;1.05;;;;;;;;;;4960249;29;20181;-84
2021/12/25 09:35:27;;;;;;;1.30;1.30;;;;;;;;;;4960126;29;20188;-85
2021/12/25 09:37:56;;;;;;;1.42;1.33;;;;;;;;;;4959857;29;20196;-87
2021/12/25 09:40:26;;;;;;;1.05;1.05;;;;;;;;;;4959540;29;20187;-85
2021/12/25 09:42:55;;;;;;;1.63;1.38;;;;;;;;;;4959128;28;20215;-84
2021/12/25 09:45:24;;;;;;;0.88;0.88;;;;;;;;;;4958580;29;20213;-84
2021/12/25 09:48:03;;;;;;;1.10;1.10;;;;;;;;;;4958225;29;20544;-84
2021/12/25 09:50:30;;;;;;;1.15;1.10;;;;;;;;;;4958972;29;20895;-85
2021/12/25 09:53:04;;;;;;;1.30;1.20;;;;;;;;;;4950344;28;20665;-83
